Albert, OK

2:33 AM CDT on July 24, 2014 (GMT -0500)
APRSWXNET Fort Cobb OK US (MD2113) Elev 1443 ft | 35.24 °N, 98.50 °W | Change Station
Active Advisory: Heat Advisory

Current weather conditions updated 29 minutes ago

Clear
Clear
76 °F
Feels Like 77 °F
N
3
Wind Variable Wind from ESE
Gusts 4.0 mph

Today is forecast to be nearly the same temperature as yesterday.

Today
High -- | Low -- °F
--% Chance of Precip.
Yesterday
High -- | Low -- °F
Precip. -- in
6:36 AM 8:43 PM
Waning Crescent, 6% visible
Pressure 30.10 in
Visibility 10.0 miles
Clouds Clear
Heat Index 77 °F
Dew Point 70 °F
Humidity 82%
Rainfall -9999.00 in
Snow Depth Not available.
UV 0 out of 12
Pollen 4.80 out of 12
Air Quality Not available.
Flu Activity Not available.
METAR KOJA 240715Z AUTO 14003KT 10SM CLR 24/20 A3010 RMK AO2

More Conditions Fewer Conditions

Pressure 30.10 in
Visibility 10.0 miles
Clouds Clear
Heat Index 77 °F
Dew Point 70 °F
Humidity 82%
Rainfall -9999.00 in
Snow Depth Not available.
UV 0 out of 12
Pollen 4.80 out of 12
Air Quality Not available.
Flu Activity Not available.
METAR KOJA 240715Z AUTO 14003KT 10SM CLR 24/20 A3010 RMK AO2

More Conditions Fewer Conditions

10-Day Weather Forecast

Almanac

Astronomy

Jul. 24, 2014 Rise Set
Actual Time 6:36 AM CDT 8:43 PM CDT
Civil Twilight 6:08 AM CDT 9:11 PM CDT
Nautical Twilight 5:33 AM CDT 9:46 PM CDT
Astronomical Twilight 4:55 AM CDT 10:23 PM CDT
Moon 4:45 AM CDT 7:00 PM CDT
Length of Visible Light 15h 03m
Length of Day
14h 06m
Tomorrow will be 1m 26s shorter.
Waning Crescent, 6% of the Moon is Illuminated
Today
Waning Crescent
Jul 26
New
Aug 3
First Quarter
Aug 10
Full
Aug 17
Last Quarter

Today's Extremes

State Highs State Lows

Community

WunderPhotos

Upload Photos

1,736,950 photos uploaded!

Nearby

Snow Depth

Station Depth Elevation
No new snow has been reported.

Earthquake Activity

City Distance Mag. Time & Date
Harper, Kansas 139 miles 3.0 7:24 PM CDT
2014-07-19
Spencer, Oklahoma 63 miles 2.7 4:56 PM CDT
2014-07-18
Helena, Oklahoma 99 miles 3.2 8:41 AM CDT
2014-07-18
Guthrie, Oklahoma 76 miles 2.9 8:59 PM CDT
2014-07-17
Minimum magnitude displayed is 2.5.

Coastal Water Temperatures

Place Temperature
No Stations Reporting

Nearby Weather Stations

Station Location Temp. Heat Index Dew Point Humidity Wind Precip. Elev Updated Type
APRSWXNET Fort Cobb OK , Albert, OK 76 °F 77 °F 70 °F 82% ESE  at  3 mph 0.00 in / hr 1443 ft 2:04 AM CDT MADIS
Peck's country, Anadarko, OK 74.9 °F 75 °F 70 °F 83% North  at  0.0 mph 0.00 in / hr 1255 ft 2:30 AM CDT Normal
Carnegie, Carnegie, OK 75.6 °F 76 °F 70 °F 82% ESE  at  0.0 mph 0.00 in / hr 1358 ft 2:33 AM CDT Rapid Fire

Show More Stations Show Fewer Stations